createdAt,value
2022-10-05T00:01:31.255Z,101883.53
2022-10-05T00:04:18.973Z,101879.47
2022-10-05T00:06:51.114Z,101883.00
2022-10-05T00:09:20.833Z,101881.91
2022-10-05T00:11:48.692Z,101885.69
2022-10-05T00:14:29.303Z,101883.00
2022-10-05T00:16:56.432Z,101889.19
2022-10-05T00:19:32.249Z,101891.09
2022-10-05T00:21:59.989Z,101875.97
2022-10-05T00:24:26.312Z,101882.44
2022-10-05T00:26:57.628Z,101873.25
2022-10-05T00:29:24.592Z,101862.47
2022-10-05T00:31:51.091Z,101873.53
2022-10-05T00:34:17.955Z,101867.31
2022-10-05T00:36:45.746Z,101860.31
2022-10-05T00:39:12.656Z,101857.59
2022-10-05T00:41:57.292Z,101863.28
2022-10-05T00:44:26.678Z,101861.66
2022-10-05T00:47:09.457Z,101850.31
2022-10-05T00:49:58.736Z,101852.19
2022-10-05T00:52:40.223Z,101853.31
2022-10-05T00:55:33.826Z,101853.56
2022-10-05T00:58:12.338Z,101851.69
2022-10-05T01:01:11.192Z,101847.38
2022-10-05T01:04:12.463Z,101850.06
2022-10-05T01:06:47.871Z,101843.06
2022-10-05T01:09:33.164Z,101836.28
2022-10-05T01:12:35.457Z,101837.13
2022-10-05T01:15:30.912Z,101834.47
2022-10-05T01:18:00.983Z,101842.28
2022-10-05T01:20:39.474Z,101832.84
2022-10-05T01:23:17.833Z,101842.00
2022-10-05T01:26:12.917Z,101827.44
2022-10-05T01:29:06.212Z,101812.06
2022-10-05T01:31:45.546Z,101802.34
2022-10-05T01:34:30.135Z,101800.44
2022-10-05T01:37:12.767Z,101795.59
2022-10-05T01:40:18.877Z,101786.97
2022-10-05T01:43:00.225Z,101788.31
2022-10-05T01:45:34.148Z,101783.19
2022-10-05T01:48:07.570Z,101781.88
2022-10-05T01:50:52.672Z,101782.41
2022-10-05T01:53:35.603Z,101784.84
2022-10-05T01:56:23.862Z,101771.03
2022-10-05T01:59:01.181Z,101768.09
2022-10-05T02:01:38.423Z,101763.25
2022-10-05T02:05:00.320Z,101741.66
2022-10-05T02:07:34.117Z,101747.34
2022-10-05T02:10:18.977Z,101747.09
2022-10-05T02:12:48.884Z,101743.56
2022-10-05T02:15:22.573Z,101740.59
2022-10-05T02:17:52.693Z,101747.91
2022-10-05T02:20:32.349Z,101748.16
2022-10-05T02:23:05.943Z,101743.59
2022-10-05T02:25:36.821Z,101743.84
2022-10-05T02:28:20.298Z,101741.44
2022-10-05T02:30:54.989Z,101740.34
2022-10-05T02:33:28.614Z,101731.72
2022-10-05T02:36:00.638Z,101716.06
2022-10-05T02:38:59.261Z,101724.72
2022-10-05T02:41:52.207Z,101739.31
2022-10-05T02:44:33.546Z,101738.47
2022-10-05T02:47:11.588Z,101728.50
2022-10-05T02:50:05.848Z,101729.31
2022-10-05T02:52:54.216Z,101711.50
2022-10-05T02:55:50.847Z,101701.28
2022-10-05T02:58:24.814Z,101705.59
2022-10-05T03:01:00.522Z,101710.19
2022-10-05T03:03:34.888Z,101721.25
2022-10-05T03:06:05.604Z,101719.88
2022-10-05T03:08:51.556Z,101711.78
2022-10-05T03:11:42.648Z,101712.63
2022-10-05T03:14:37.055Z,101710.72
2022-10-05T03:17:20.811Z,101716.94
2022-10-05T03:20:02.105Z,101720.41
2022-10-05T03:22:49.586Z,101715.56
2022-10-05T03:25:32.609Z,101717.47
2022-10-05T03:28:12.186Z,101723.66
2022-10-05T03:31:06.633Z,101725.81
2022-10-05T03:33:42.833Z,101721.22
2022-10-05T03:36:36.338Z,101725.00
2022-10-05T03:39:05.882Z,101725.81
2022-10-05T03:41:50.375Z,101724.72
2022-10-05T03:44:49.256Z,101718.22
2022-10-05T03:47:37.910Z,101719.84
2022-10-05T03:50:30.011Z,101720.94
2022-10-05T03:53:18.332Z,101715.53
2022-10-05T03:55:54.207Z,101724.97
2022-10-05T03:58:40.991Z,101715.78
2022-10-05T04:01:17.087Z,101720.09
2022-10-05T04:03:52.152Z,101715.53
2022-10-05T04:06:25.460Z,101710.94
2022-10-05T04:09:02.015Z,101697.44
2022-10-05T04:11:47.035Z,101702.84
2022-10-05T04:14:21.863Z,101698.28
2022-10-05T04:16:54.789Z,101698.53
2022-10-05T04:19:32.039Z,101695.81
2022-10-05T04:22:24.956Z,101696.91
2022-10-05T04:24:58.778Z,101697.72
2022-10-05T04:27:32.250Z,101703.38
2022-10-05T04:30:05.137Z,101691.25
2022-10-05T04:32:37.524Z,101691.50
2022-10-05T04:35:24.636Z,101686.13
2022-10-05T04:37:53.883Z,101678.03
2022-10-05T04:40:31.317Z,101673.69
2022-10-05T04:43:15.919Z,101672.91
2022-10-05T04:46:27.459Z,101677.47
2022-10-05T04:49:10.292Z,101670.47
2022-10-05T04:51:55.315Z,101671.56
2022-10-05T04:54:42.200Z,101670.47
2022-10-05T04:57:33.988Z,101673.44
2022-10-05T05:00:18.178Z,101674.00
2022-10-05T05:03:07.489Z,101668.59
2022-10-05T05:05:58.620Z,101666.69
2022-10-05T05:08:46.692Z,101663.50
2022-10-05T05:11:41.568Z,101655.09
2022-10-05T05:14:19.448Z,101655.09
2022-10-05T05:16:54.807Z,101658.59
2022-10-05T05:19:28.556Z,101651.31
2022-10-05T05:22:16.029Z,101643.50
2022-10-05T05:24:42.273Z,101644.31
2022-10-05T05:27:46.069Z,101639.72
2022-10-05T05:30:23.193Z,101643.50
2022-10-05T05:33:08.493Z,101643.50
2022-10-05T05:36:14.086Z,101644.59
2022-10-05T05:39:08.241Z,101642.16
2022-10-05T05:41:39.042Z,101641.38
2022-10-05T05:44:21.541Z,101647.31
2022-10-05T05:47:05.465Z,101650.00
2022-10-05T05:49:44.306Z,101647.31
2022-10-05T05:52:18.012Z,101639.50
2022-10-05T05:55:02.432Z,101646.78
2022-10-05T05:57:44.575Z,101651.63
2022-10-05T06:00:14.290Z,101631.13
2022-10-05T06:02:57.006Z,101633.81
2022-10-05T06:05:48.168Z,101639.22
2022-10-05T06:08:24.704Z,101643.00
2022-10-05T06:11:16.580Z,101642.22
2022-10-05T06:13:44.033Z,101643.53
2022-10-05T06:16:36.898Z,101647.06
2022-10-05T06:19:10.335Z,101647.84
2022-10-05T06:21:46.871Z,101648.38
2022-10-05T06:24:31.701Z,101648.38
2022-10-05T06:27:13.368Z,101646.47
2022-10-05T06:30:03.299Z,101650.00
2022-10-05T06:32:50.735Z,101646.22
2022-10-05T06:36:21.971Z,101645.16
2022-10-05T06:38:50.925Z,101646.75
2022-10-05T06:41:29.184Z,101657.25
2022-10-05T06:44:04.115Z,101649.72
2022-10-05T06:46:49.027Z,101658.59
2022-10-05T06:49:18.896Z,101655.91
2022-10-05T06:51:58.289Z,101652.41
2022-10-05T06:54:46.410Z,101656.44
2022-10-05T06:57:36.464Z,101649.16
2022-10-05T07:00:02.758Z,101661.28
2022-10-05T07:02:38.935Z,101661.28
2022-10-05T07:05:20.287Z,101659.38
2022-10-05T07:08:00.877Z,101654.53
2022-10-05T07:10:50.282Z,101644.56
2022-10-05T07:13:38.233Z,101654.81
2022-10-05T07:16:26.421Z,101646.41
2022-10-05T07:18:55.841Z,101654.47
2022-10-05T07:21:45.880Z,101648.53
2022-10-05T07:24:15.290Z,101650.97
2022-10-05T07:26:46.789Z,101649.09
2022-10-05T07:29:23.795Z,101650.44
2022-10-05T07:32:07.297Z,101649.34
2022-10-05T07:34:45.452Z,101649.34
2022-10-05T07:37:47.436Z,101652.88
2022-10-05T07:40:23.140Z,101655.81
2022-10-05T07:43:03.788Z,101660.44
2022-10-05T07:45:47.850Z,101656.91
2022-10-05T07:48:21.102Z,101658.25
2022-10-05T07:51:01.591Z,101660.97
2022-10-05T07:53:48.035Z,101654.47
2022-10-05T07:56:26.589Z,101648.50
2022-10-05T07:59:02.894Z,101645.81
2022-10-05T08:01:38.267Z,101643.94
2022-10-05T08:04:19.994Z,101646.63
2022-10-05T08:06:54.023Z,101644.72
2022-10-05T08:09:57.779Z,101643.63
2022-10-05T08:12:27.060Z,101635.28
2022-10-05T08:14:58.840Z,101632.28
2022-10-05T08:17:50.694Z,101637.41
2022-10-05T08:20:29.597Z,101646.03
2022-10-05T08:23:10.476Z,101635.50
2022-10-05T08:25:45.588Z,101628.22
2022-10-05T08:28:26.907Z,101625.19
2022-10-05T08:31:16.671Z,101629.28
2022-10-05T08:33:55.457Z,101621.97
2022-10-05T08:36:43.862Z,101626.81
2022-10-05T08:39:18.462Z,101619.47
2022-10-05T08:42:00.009Z,101621.63
2022-10-05T08:45:01.309Z,101615.69
2022-10-05T08:48:05.700Z,101612.44
2022-10-05T08:50:47.139Z,101623.78
2022-10-05T08:53:22.471Z,101613.25
2022-10-05T08:55:56.852Z,101615.91
2022-10-05T08:58:42.928Z,101611.84
2022-10-05T09:01:25.940Z,101606.97
2022-10-05T09:04:18.140Z,101613.44
2022-10-05T09:06:59.389Z,101608.53
2022-10-05T09:09:40.649Z,101602.78
2022-10-05T09:12:37.417Z,101600.91
2022-10-05T09:15:31.219Z,101605.47
2022-10-05T09:18:29.324Z,101605.69
2022-10-05T09:21:44.754Z,101602.13
2022-10-05T09:24:14.111Z,101585.56
2022-10-05T09:26:40.356Z,101596.59
2022-10-05T09:29:34.591Z,101587.59
2022-10-05T09:32:18.834Z,101589.44
2022-10-05T09:35:08.068Z,101588.31
2022-10-05T09:38:10.087Z,101593.41
2022-10-05T09:41:14.504Z,101584.88
2022-10-05T09:43:59.020Z,101577.69
2022-10-05T09:46:37.592Z,101580.63
2022-10-05T09:49:28.528Z,101576.78
2022-10-05T09:52:15.131Z,101561.84
2022-10-05T09:55:08.145Z,101563.19
2022-10-05T09:57:49.266Z,101565.28
2022-10-05T10:00:37.668Z,101555.72
2022-10-05T10:03:45.274Z,101559.91
2022-10-05T10:06:26.554Z,101555.31
2022-10-05T10:09:11.742Z,101554.13
2022-10-05T10:12:08.368Z,101544.84
2022-10-05T10:15:16.081Z,101541.41
2022-10-05T10:18:08.754Z,101550.78
2022-10-05T10:20:55.981Z,101540.16
2022-10-05T10:24:00.259Z,101542.50
2022-10-05T10:26:48.512Z,101546.72
2022-10-05T10:29:33.544Z,101546.09
2022-10-05T10:32:19.465Z,101538.91
2022-10-05T10:35:04.487Z,101543.72
2022-10-05T10:37:39.476Z,101533.19
2022-10-05T10:40:28.738Z,101526.91
2022-10-05T10:43:21.901Z,101527.09
2022-10-05T10:46:12.711Z,101526.38
2022-10-05T10:48:52.753Z,101523.59
2022-10-05T10:51:28.188Z,101529.31
2022-10-05T10:54:36.045Z,101526.09
2022-10-05T10:57:16.737Z,101526.53
2022-10-05T11:00:08.131Z,101523.09
2022-10-05T11:03:08.427Z,101518.78
2022-10-05T11:05:48.781Z,101521.50
2022-10-05T11:08:54.462Z,101516.13
2022-10-05T11:11:53.221Z,101514.75
2022-10-05T11:14:42.819Z,101514.00
2022-10-05T11:17:38.279Z,101516.66
2022-10-05T11:20:25.267Z,101520.53
2022-10-05T11:23:07.645Z,101508.66
2022-10-05T11:25:48.885Z,101523.75
2022-10-05T11:28:43.026Z,101519.19
2022-10-05T11:31:53.352Z,101510.84
2022-10-05T11:34:38.561Z,101510.34
2022-10-05T11:37:32.316Z,101502.72
2022-10-05T11:40:20.849Z,101497.22
2022-10-05T11:43:08.423Z,101495.50
2022-10-05T11:46:00.576Z,101496.31
2022-10-05T11:48:38.909Z,101492.91
2022-10-05T11:51:34.133Z,101489.09
2022-10-05T11:54:09.239Z,101487.88
2022-10-05T11:56:38.044Z,101482.66
2022-10-05T11:59:34.464Z,101486.91
2022-10-05T12:02:21.212Z,101485.09
2022-10-05T12:05:06.403Z,101479.78
2022-10-05T12:07:42.937Z,101483.53
2022-10-05T12:10:16.801Z,101474.16
2022-10-05T12:13:19.285Z,101486.81
2022-10-05T12:16:08.177Z,101474.47
2022-10-05T12:18:39.080Z,101473.56
2022-10-05T12:21:15.200Z,101477.28
2022-10-05T12:23:54.726Z,101467.25
2022-10-05T12:26:39.643Z,101468.94
2022-10-05T12:29:06.726Z,101475.75
2022-10-05T12:31:48.170Z,101466.19
2022-10-05T12:34:29.763Z,101474.66
2022-10-05T12:37:43.240Z,101450.31
2022-10-05T12:40:21.780Z,101453.91
2022-10-05T12:43:08.741Z,101468.38
2022-10-05T12:46:06.359Z,101461.91
2022-10-05T12:48:42.120Z,101451.16
2022-10-05T12:51:44.761Z,101451.91
2022-10-05T12:54:22.222Z,101457.56
2022-10-05T12:56:58.028Z,101455.34
2022-10-05T12:59:46.744Z,101463.50
2022-10-05T13:02:30.439Z,101459.44
2022-10-05T13:05:27.126Z,101450.78
2022-10-05T13:08:17.902Z,101451.75
2022-10-05T13:11:02.102Z,101445.97
2022-10-05T13:13:42.796Z,101449.69
2022-10-05T13:16:27.295Z,101445.81
2022-10-05T13:19:15.918Z,101439.19
2022-10-05T13:22:16.647Z,101445.47
2022-10-05T13:25:23.195Z,101450.97
2022-10-05T13:28:16.539Z,101446.94
2022-10-05T13:30:53.950Z,101455.72
2022-10-05T13:33:30.579Z,101459.16
2022-10-05T13:36:21.251Z,101449.41
2022-10-05T13:38:59.551Z,101448.28
2022-10-05T13:41:50.068Z,101448.03
2022-10-05T13:44:30.620Z,101452.53
2022-10-05T13:47:16.787Z,101446.25
2022-10-05T13:49:57.825Z,101445.22
2022-10-05T13:52:37.596Z,101442.47
2022-10-05T13:55:18.068Z,101439.31
2022-10-05T13:57:53.276Z,101444.72
2022-10-05T14:00:27.112Z,101450.97
2022-10-05T14:02:56.835Z,101435.06
2022-10-05T14:05:26.909Z,101436.03
2022-10-05T14:08:02.073Z,101441.88
2022-10-05T14:10:43.282Z,101432.31
2022-10-05T14:13:46.575Z,101460.00
2022-10-05T14:16:12.999Z,101440.72
2022-10-05T14:18:52.729Z,101442.63
2022-10-05T14:21:25.069Z,101441.22
2022-10-05T14:23:52.214Z,101433.94
2022-10-05T14:26:31.618Z,101442.81
2022-10-05T14:29:02.176Z,101448.53
2022-10-05T14:31:31.742Z,101437.31
2022-10-05T14:34:29.302Z,101448.94
2022-10-05T14:37:01.719Z,101455.66
2022-10-05T14:39:33.314Z,101477.59
2022-10-05T14:42:13.629Z,101463.25
2022-10-05T14:44:40.156Z,101470.47
2022-10-05T14:47:20.344Z,101466.28
2022-10-05T14:50:10.530Z,101476.44
2022-10-05T14:52:38.873Z,101485.94
2022-10-05T14:55:30.101Z,101477.84
2022-10-05T14:58:12.286Z,101478.63
2022-10-05T15:00:56.738Z,101476.25
2022-10-05T15:03:41.005Z,101480.34
2022-10-05T15:06:18.078Z,101467.41
2022-10-05T15:08:56.728Z,101468.63
2022-10-05T15:11:37.217Z,101486.59
2022-10-05T15:14:11.856Z,101482.31
2022-10-05T15:16:40.387Z,101453.72
2022-10-05T15:19:17.864Z,101466.00
2022-10-05T15:22:09.344Z,101470.25
2022-10-05T15:25:08.701Z,101472.53
2022-10-05T15:28:00.098Z,101464.03
2022-10-05T15:30:26.444Z,101457.09
2022-10-05T15:33:11.113Z,101460.22
2022-10-05T15:36:06.266Z,101480.41
2022-10-05T15:38:49.534Z,101476.38
2022-10-05T15:41:27.792Z,101482.19
2022-10-05T15:44:25.945Z,101477.47
2022-10-05T15:47:35.324Z,101472.06
2022-10-05T15:50:29.585Z,101473.16
2022-10-05T15:52:59.359Z,101474.47
2022-10-05T15:55:35.194Z,101477.16
2022-10-05T15:58:08.320Z,101490.53
2022-10-05T16:00:42.717Z,101481.88
2022-10-05T16:03:25.564Z,101484.59
2022-10-05T16:06:20.504Z,101470.53
2022-10-05T16:09:16.691Z,101475.47
2022-10-05T16:11:56.369Z,101487.69
2022-10-05T16:14:55.705Z,101477.38
2022-10-05T16:17:49.000Z,101476.94
2022-10-05T16:20:35.592Z,101492.19
2022-10-05T16:23:22.919Z,101497.63
2022-10-05T16:25:58.727Z,101502.22
2022-10-05T16:28:39.363Z,101495.56
2022-10-05T16:31:08.328Z,101504.28
2022-10-05T16:33:54.309Z,101507.56
2022-10-05T16:36:36.243Z,101502.44
2022-10-05T16:39:29.135Z,101513.06
2022-10-05T16:42:06.402Z,101496.88
2022-10-05T16:44:49.514Z,101501.50
2022-10-05T16:47:40.381Z,101505.31
2022-10-05T16:50:42.947Z,101508.09
2022-10-05T16:53:38.525Z,101513.28
2022-10-05T16:56:11.392Z,101508.97
2022-10-05T16:58:58.669Z,101521.50
2022-10-05T17:01:47.041Z,101522.59
2022-10-05T17:04:40.206Z,101520.47
2022-10-05T17:07:32.744Z,101520.75
2022-10-05T17:10:28.587Z,101518.56
2022-10-05T17:13:16.186Z,101527.78
2022-10-05T17:16:00.691Z,101527.28
2022-10-05T17:18:51.600Z,101537.59
2022-10-05T17:21:22.911Z,101523.56
2022-10-05T17:24:15.485Z,101525.44
2022-10-05T17:27:03.527Z,101527.34
2022-10-05T17:29:47.549Z,101531.47
2022-10-05T17:32:16.929Z,101529.84
2022-10-05T17:35:01.736Z,101527.16
2022-10-05T17:37:27.974Z,101526.63
2022-10-05T17:39:56.076Z,101540.16
2022-10-05T17:42:31.177Z,101548.28
2022-10-05T17:45:20.561Z,101553.69
2022-10-05T17:48:09.016Z,101553.69
2022-10-05T17:51:00.093Z,101553.19
2022-10-05T17:54:03.219Z,101557.78
2022-10-05T17:56:58.611Z,101555.88
2022-10-05T17:59:37.304Z,101562.13
2022-10-05T18:02:36.638Z,101567.22
2022-10-05T18:05:04.024Z,101561.81
2022-10-05T18:07:31.602Z,101559.09
2022-10-05T18:10:11.520Z,101556.41
2022-10-05T18:12:40.814Z,101554.47
2022-10-05T18:15:07.055Z,101567.22
2022-10-05T18:17:39.906Z,101578.84
2022-10-05T18:20:13.748Z,101572.63
2022-10-05T18:22:40.677Z,101566.91
2022-10-05T18:25:22.794Z,101569.94
2022-10-05T18:28:13.919Z,101573.16
2022-10-05T18:30:55.173Z,101566.13
2022-10-05T18:33:55.670Z,101578.56
2022-10-05T18:36:48.407Z,101573.69
2022-10-05T18:39:51.436Z,101570.34
2022-10-05T18:42:32.836Z,101592.00
2022-10-05T18:45:17.874Z,101583.63
2022-10-05T18:47:47.047Z,101590.91
2022-10-05T18:50:38.335Z,101590.91
2022-10-05T18:53:14.848Z,101594.16
2022-10-05T18:55:47.685Z,101597.66
2022-10-05T18:58:20.392Z,101611.22
2022-10-05T19:01:05.246Z,101606.59
2022-10-05T19:03:51.284Z,101616.00
2022-10-05T19:06:36.165Z,101620.06
2022-10-05T19:09:08.260Z,101625.69
2022-10-05T19:11:38.512Z,101618.09
2022-10-05T19:14:20.129Z,101623.19
2022-10-05T19:17:04.146Z,101632.63
2022-10-05T19:19:36.815Z,101641.56
2022-10-05T19:22:34.486Z,101635.63
2022-10-05T19:25:09.891Z,101638.66
2022-10-05T19:27:55.336Z,101653.81
2022-10-05T19:30:25.138Z,101645.38
2022-10-05T19:33:26.054Z,101655.09
2022-10-05T19:36:17.204Z,101672.44
2022-10-05T19:38:55.827Z,101678.38
2022-10-05T19:41:36.074Z,101683.81
2022-10-05T19:44:11.286Z,101707.34
2022-10-05T19:47:01.331Z,101739.97
2022-10-05T19:49:42.884Z,101755.13
2022-10-05T19:52:13.730Z,101769.25
2022-10-05T19:54:42.323Z,101768.41
2022-10-05T19:57:18.912Z,101768.59
2022-10-05T19:59:47.647Z,101786.72
2022-10-05T20:02:17.318Z,101783.28
2022-10-05T20:04:47.382Z,101790.28
2022-10-05T20:07:16.932Z,101789.19
2022-10-05T20:09:50.713Z,101797.81
2022-10-05T20:12:17.148Z,101799.16
2022-10-05T20:15:02.065Z,101818.28
2022-10-05T20:17:47.967Z,101814.50
2022-10-05T20:20:44.557Z,101833.31
2022-10-05T20:23:21.046Z,101843.00
2022-10-05T20:26:07.343Z,101844.63
2022-10-05T20:28:33.750Z,101856.72
2022-10-05T20:31:00.149Z,101860.50
2022-10-05T20:33:27.560Z,101857.81
2022-10-05T20:35:54.433Z,101872.59
2022-10-05T20:38:21.066Z,101869.91
2022-10-05T20:40:47.402Z,101860.16
2022-10-05T20:43:14.425Z,101866.38
2022-10-05T20:45:43.729Z,101882.25
2022-10-05T20:48:11.118Z,101880.09
2022-10-05T20:50:37.812Z,101884.41
2022-10-05T20:53:09.646Z,101893.91
2022-10-05T20:55:37.984Z,101898.47
2022-10-05T20:58:04.284Z,101905.47
2022-10-05T21:00:50.603Z,101913.56
2022-10-05T21:03:19.184Z,101925.38
2022-10-05T21:05:46.693Z,101923.53
2022-10-05T21:08:13.028Z,101952.09
2022-10-05T21:10:39.999Z,101969.56
2022-10-05T21:13:06.322Z,101965.75
2022-10-05T21:15:32.627Z,101978.66
2022-10-05T21:17:59.242Z,101963.25
2022-10-05T21:20:25.965Z,101956.47
2022-10-05T21:22:52.269Z,101956.19
2022-10-05T21:25:18.566Z,101961.28
2022-10-05T21:27:46.249Z,101955.03
2022-10-05T21:30:12.791Z,101967.09
2022-10-05T21:32:43.977Z,101959.81
2022-10-05T21:35:10.852Z,101959.53
2022-10-05T21:37:37.252Z,101963.78
2022-10-05T21:40:03.927Z,101966.19
2022-10-05T21:42:30.295Z,101971.84
2022-10-05T21:44:56.583Z,101974.28
2022-10-05T21:47:22.947Z,101975.59
2022-10-05T21:49:49.307Z,101984.69
2022-10-05T21:52:15.616Z,101986.56
2022-10-05T21:54:41.937Z,101991.09
2022-10-05T21:57:11.462Z,101997.28
2022-10-05T21:59:37.860Z,102002.88
2022-10-05T22:02:04.309Z,102009.03
2022-10-05T22:04:30.655Z,102013.03
2022-10-05T22:06:57.005Z,102012.47
2022-10-05T22:09:23.367Z,102024.00
2022-10-05T22:11:49.685Z,102023.66
2022-10-05T22:14:16.180Z,102032.25
2022-10-05T22:16:43.960Z,102033.00
2022-10-05T22:19:18.455Z,102040.75
2022-10-05T22:21:44.894Z,102047.19
2022-10-05T22:24:14.089Z,102057.38
2022-10-05T22:26:43.655Z,102061.66
2022-10-05T22:29:10.075Z,102075.69
2022-10-05T22:31:36.906Z,102076.16
2022-10-05T22:34:03.292Z,102075.03
2022-10-05T22:36:29.623Z,102081.78
2022-10-05T22:38:56.036Z,102087.16
2022-10-05T22:41:22.422Z,102085.00
2022-10-05T22:43:50.138Z,102097.91
2022-10-05T22:46:16.943Z,102094.41
2022-10-05T22:48:43.555Z,102109.50
2022-10-05T22:51:10.195Z,102105.75
2022-10-05T22:53:36.545Z,102108.34
2022-10-05T22:56:13.916Z,102109.41
2022-10-05T22:58:41.690Z,102125.53
2022-10-05T23:01:11.629Z,102123.13
2022-10-05T23:03:38.901Z,102121.50
2022-10-05T23:06:08.972Z,102135.19
2022-10-05T23:08:37.288Z,102140.56
2022-10-05T23:11:04.213Z,102140.00
2022-10-05T23:13:30.924Z,102141.06
2022-10-05T23:15:57.617Z,102143.16
2022-10-05T23:18:24.106Z,102151.25
2022-10-05T23:20:57.130Z,102156.03
2022-10-05T23:23:23.543Z,102154.66
2022-10-05T23:25:50.059Z,102157.84
2022-10-05T23:28:16.408Z,102160.53
2022-10-05T23:30:42.875Z,102168.59
2022-10-05T23:33:09.247Z,102162.16
2022-10-05T23:35:35.584Z,102171.03
2022-10-05T23:38:01.884Z,102170.22
2022-10-05T23:40:28.216Z,102177.72
2022-10-05T23:42:54.521Z,102187.97
2022-10-05T23:45:20.822Z,102193.94
2022-10-05T23:47:47.144Z,102203.06
2022-10-05T23:50:13.442Z,102194.41
2022-10-05T23:52:39.876Z,102207.28
2022-10-05T23:55:06.925Z,102213.97
2022-10-05T23:57:33.335Z,102215.03
